sensor_id;sensor_type;location;lat;lon;timestamp;P1;P2;P0
47810;PMS5003;33575;52.600;7.318;2022-10-15T00:01:53;38;34;
47810;PMS5003;33575;52.600;7.318;2022-10-15T00:04:23;54;46;
47810;PMS5003;33575;52.600;7.318;2022-10-15T00:06:53;48;47;
47810;PMS5003;33575;52.600;7.318;2022-10-15T00:09:24;42;39;
47810;PMS5003;33575;52.600;7.318;2022-10-15T00:11:54;46;42;
47810;PMS5003;33575;52.600;7.318;2022-10-15T00:14:24;51;47;
47810;PMS5003;33575;52.600;7.318;2022-10-15T00:16:55;43;42;
47810;PMS5003;33575;52.600;7.318;2022-10-15T00:19:25;43;42;
47810;PMS5003;33575;52.600;7.318;2022-10-15T00:21:55;51;43;
47810;PMS5003;33575;52.600;7.318;2022-10-15T00:24:25;54;48;
47810;PMS5003;33575;52.600;7.318;2022-10-15T00:26:56;47;43;
47810;PMS5003;33575;52.600;7.318;2022-10-15T00:29:27;44;40;
47810;PMS5003;33575;52.600;7.318;2022-10-15T00:31:57;46;42;
47810;PMS5003;33575;52.600;7.318;2022-10-15T00:34:28;45;43;
47810;PMS5003;33575;52.600;7.318;2022-10-15T00:36:58;38;35;
47810;PMS5003;33575;52.600;7.318;2022-10-15T00:39:29;47;43;
47810;PMS5003;33575;52.600;7.318;2022-10-15T00:41:59;41;40;
47810;PMS5003;33575;52.600;7.318;2022-10-15T00:47:01;45;41;
47810;PMS5003;33575;52.600;7.318;2022-10-15T00:49:32;51;47;
47810;PMS5003;33575;52.600;7.318;2022-10-15T00:52:02;44;43;
47810;PMS5003;33575;52.600;7.318;2022-10-15T00:54:32;42;41;
47810;PMS5003;33575;52.600;7.318;2022-10-15T00:57:02;40;39;
47810;PMS5003;33575;52.600;7.318;2022-10-15T00:59:32;46;45;
47810;PMS5003;33575;52.600;7.318;2022-10-15T01:02:02;44;41;
47810;PMS5003;33575;52.600;7.318;2022-10-15T01:04:33;44;42;
47810;PMS5003;33575;52.600;7.318;2022-10-15T01:07:03;42;38;
47810;PMS5003;33575;52.600;7.318;2022-10-15T01:09:33;51;44;
47810;PMS5003;33575;52.600;7.318;2022-10-15T01:12:03;46;39;
47810;PMS5003;33575;52.600;7.318;2022-10-15T01:14:37;39;36;
47810;PMS5003;33575;52.600;7.318;2022-10-15T01:17:06;47;44;
47810;PMS5003;33575;52.600;7.318;2022-10-15T01:19:41;39;34;
47810;PMS5003;33575;52.600;7.318;2022-10-15T01:22:07;47;41;
47810;PMS5003;33575;52.600;7.318;2022-10-15T01:24:41;42;38;
47810;PMS5003;33575;52.600;7.318;2022-10-15T01:27:10;45;41;
47810;PMS5003;33575;52.600;7.318;2022-10-15T01:32:10;54;47;
47810;PMS5003;33575;52.600;7.318;2022-10-15T01:34:41;46;43;
47810;PMS5003;33575;52.600;7.318;2022-10-15T01:37:10;48;43;
47810;PMS5003;33575;52.600;7.318;2022-10-15T01:39:40;42;40;
47810;PMS5003;33575;52.600;7.318;2022-10-15T01:42:12;47;43;
47810;PMS5003;33575;52.600;7.318;2022-10-15T01:44:41;48;44;
47810;PMS5003;33575;52.600;7.318;2022-10-15T01:47:13;48;43;
47810;PMS5003;33575;52.600;7.318;2022-10-15T01:49:42;41;39;
47810;PMS5003;33575;52.600;7.318;2022-10-15T01:52:13;50;43;
47810;PMS5003;33575;52.600;7.318;2022-10-15T01:54:42;46;43;
47810;PMS5003;33575;52.600;7.318;2022-10-15T01:57:12;44;40;
47810;PMS5003;33575;52.600;7.318;2022-10-15T01:59:43;44;40;
47810;PMS5003;33575;52.600;7.318;2022-10-15T02:02:13;46;41;
47810;PMS5003;33575;52.600;7.318;2022-10-15T02:04:44;41;38;
47810;PMS5003;33575;52.600;7.318;2022-10-15T02:07:17;42;37;
47810;PMS5003;33575;52.600;7.318;2022-10-15T02:09:47;40;39;
47810;PMS5003;33575;52.600;7.318;2022-10-15T02:12:21;46;41;
47810;PMS5003;33575;52.600;7.318;2022-10-15T02:14:48;42;41;
47810;PMS5003;33575;52.600;7.318;2022-10-15T02:17:16;47;39;
47810;PMS5003;33575;52.600;7.318;2022-10-15T02:19:48;38;36;
47810;PMS5003;33575;52.600;7.318;2022-10-15T02:22:17;50;48;
47810;PMS5003;33575;52.600;7.318;2022-10-15T02:24:54;39;37;
47810;PMS5003;33575;52.600;7.318;2022-10-15T02:27:17;41;40;
47810;PMS5003;33575;52.600;7.318;2022-10-15T02:29:48;48;44;
47810;PMS5003;33575;52.600;7.318;2022-10-15T02:32:18;39;38;
47810;PMS5003;33575;52.600;7.318;2022-10-15T02:34:48;47;42;
47810;PMS5003;33575;52.600;7.318;2022-10-15T02:37:19;47;43;
47810;PMS5003;33575;52.600;7.318;2022-10-15T02:39:49;49;46;
47810;PMS5003;33575;52.600;7.318;2022-10-15T02:42:19;53;46;
47810;PMS5003;33575;52.600;7.318;2022-10-15T02:44:50;47;41;
47810;PMS5003;33575;52.600;7.318;2022-10-15T02:47:21;46;42;
47810;PMS5003;33575;52.600;7.318;2022-10-15T02:49:50;43;41;
47810;PMS5003;33575;52.600;7.318;2022-10-15T02:52:21;45;43;
47810;PMS5003;33575;52.600;7.318;2022-10-15T02:54:52;41;36;
47810;PMS5003;33575;52.600;7.318;2022-10-15T02:57:23;47;44;
47810;PMS5003;33575;52.600;7.318;2022-10-15T02:59:53;41;37;
47810;PMS5003;33575;52.600;7.318;2022-10-15T03:02:23;51;41;
47810;PMS5003;33575;52.600;7.318;2022-10-15T03:04:54;44;41;
47810;PMS5003;33575;52.600;7.318;2022-10-15T03:07:25;47;43;
47810;PMS5003;33575;52.600;7.318;2022-10-15T03:09:55;37;35;
47810;PMS5003;33575;52.600;7.318;2022-10-15T03:12:25;45;43;
47810;PMS5003;33575;52.600;7.318;2022-10-15T03:14:56;43;40;
47810;PMS5003;33575;52.600;7.318;2022-10-15T03:17:27;42;40;
47810;PMS5003;33575;52.600;7.318;2022-10-15T03:19:57;39;37;
47810;PMS5003;33575;52.600;7.318;2022-10-15T03:22:27;37;35;
47810;PMS5003;33575;52.600;7.318;2022-10-15T03:24:57;42;39;
47810;PMS5003;33575;52.600;7.318;2022-10-15T03:27:28;46;42;
47810;PMS5003;33575;52.600;7.318;2022-10-15T03:29:58;47;43;
47810;PMS5003;33575;52.600;7.318;2022-10-15T03:32:32;41;38;
47810;PMS5003;33575;52.600;7.318;2022-10-15T03:34:59;44;38;
47810;PMS5003;33575;52.600;7.318;2022-10-15T03:37:30;48;41;
47810;PMS5003;33575;52.600;7.318;2022-10-15T03:40:01;44;43;
47810;PMS5003;33575;52.600;7.318;2022-10-15T03:42:31;44;40;
47810;PMS5003;33575;52.600;7.318;2022-10-15T03:45:02;41;39;
47810;PMS5003;33575;52.600;7.318;2022-10-15T03:47:33;41;37;
47810;PMS5003;33575;52.600;7.318;2022-10-15T03:50:03;40;39;
47810;PMS5003;33575;52.600;7.318;2022-10-15T03:52:34;54;50;
47810;PMS5003;33575;52.600;7.318;2022-10-15T03:55:05;45;42;
47810;PMS5003;33575;52.600;7.318;2022-10-15T03:57:34;44;40;
47810;PMS5003;33575;52.600;7.318;2022-10-15T04:00:06;43;37;
47810;PMS5003;33575;52.600;7.318;2022-10-15T04:02:35;45;40;
47810;PMS5003;33575;52.600;7.318;2022-10-15T04:05:06;47;42;
47810;PMS5003;33575;52.600;7.318;2022-10-15T04:07:36;36;36;
47810;PMS5003;33575;52.600;7.318;2022-10-15T04:10:07;44;39;
47810;PMS5003;33575;52.600;7.318;2022-10-15T04:12:37;41;36;
47810;PMS5003;33575;52.600;7.318;2022-10-15T04:15:08;40;35;
47810;PMS5003;33575;52.600;7.318;2022-10-15T04:17:38;39;37;
47810;PMS5003;33575;52.600;7.318;2022-10-15T04:20:08;50;47;
47810;PMS5003;33575;52.600;7.318;2022-10-15T04:22:39;43;39;
47810;PMS5003;33575;52.600;7.318;2022-10-15T04:25:09;43;35;
47810;PMS5003;33575;52.600;7.318;2022-10-15T04:27:39;38;37;
47810;PMS5003;33575;52.600;7.318;2022-10-15T04:30:11;37;32;
47810;PMS5003;33575;52.600;7.318;2022-10-15T04:32:40;39;35;
47810;PMS5003;33575;52.600;7.318;2022-10-15T04:35:11;31;30;
47810;PMS5003;33575;52.600;7.318;2022-10-15T04:37:41;33;32;
47810;PMS5003;33575;52.600;7.318;2022-10-15T04:40:12;36;35;
47810;PMS5003;33575;52.600;7.318;2022-10-15T04:42:42;31;29;
47810;PMS5003;33575;52.600;7.318;2022-10-15T04:45:12;41;35;
47810;PMS5003;33575;52.600;7.318;2022-10-15T04:47:43;36;35;
47810;PMS5003;33575;52.600;7.318;2022-10-15T04:50:13;47;41;
47810;PMS5003;33575;52.600;7.318;2022-10-15T04:52:43;39;35;
47810;PMS5003;33575;52.600;7.318;2022-10-15T04:55:13;39;36;
47810;PMS5003;33575;52.600;7.318;2022-10-15T04:57:43;41;34;
47810;PMS5003;33575;52.600;7.318;2022-10-15T05:00:14;30;29;
47810;PMS5003;33575;52.600;7.318;2022-10-15T05:02:44;32;32;
47810;PMS5003;33575;52.600;7.318;2022-10-15T05:05:15;30;29;
47810;PMS5003;33575;52.600;7.318;2022-10-15T05:07:45;31;30;
47810;PMS5003;33575;52.600;7.318;2022-10-15T05:10:15;37;33;
47810;PMS5003;33575;52.600;7.318;2022-10-15T05:12:46;34;31;
47810;PMS5003;33575;52.600;7.318;2022-10-15T05:15:16;38;35;
47810;PMS5003;33575;52.600;7.318;2022-10-15T05:17:47;28;27;
47810;PMS5003;33575;52.600;7.318;2022-10-15T05:20:18;33;32;
47810;PMS5003;33575;52.600;7.318;2022-10-15T05:22:48;36;31;
47810;PMS5003;33575;52.600;7.318;2022-10-15T05:25:19;37;32;
47810;PMS5003;33575;52.600;7.318;2022-10-15T05:27:50;38;35;
47810;PMS5003;33575;52.600;7.318;2022-10-15T05:30:21;43;36;
47810;PMS5003;33575;52.600;7.318;2022-10-15T05:32:51;30;27;
47810;PMS5003;33575;52.600;7.318;2022-10-15T05:35:21;38;35;
47810;PMS5003;33575;52.600;7.318;2022-10-15T05:37:52;41;39;
47810;PMS5003;33575;52.600;7.318;2022-10-15T05:40:22;37;35;
47810;PMS5003;33575;52.600;7.318;2022-10-15T05:42:52;37;35;
47810;PMS5003;33575;52.600;7.318;2022-10-15T05:45:23;38;36;
47810;PMS5003;33575;52.600;7.318;2022-10-15T05:47:53;39;36;
47810;PMS5003;33575;52.600;7.318;2022-10-15T05:50:24;38;34;
47810;PMS5003;33575;52.600;7.318;2022-10-15T05:52:55;42;40;
47810;PMS5003;33575;52.600;7.318;2022-10-15T05:55:25;40;37;
47810;PMS5003;33575;52.600;7.318;2022-10-15T05:57:59;33;33;
47810;PMS5003;33575;52.600;7.318;2022-10-15T06:00:26;36;34;
47810;PMS5003;33575;52.600;7.318;2022-10-15T06:02:57;40;36;
47810;PMS5003;33575;52.600;7.318;2022-10-15T06:05:27;37;35;
47810;PMS5003;33575;52.600;7.318;2022-10-15T06:07:57;37;36;
47810;PMS5003;33575;52.600;7.318;2022-10-15T06:10:28;59;58;
47810;PMS5003;33575;52.600;7.318;2022-10-15T06:12:58;40;37;
47810;PMS5003;33575;52.600;7.318;2022-10-15T06:15:28;40;39;
47810;PMS5003;33575;52.600;7.318;2022-10-15T06:17:59;39;37;
47810;PMS5003;33575;52.600;7.318;2022-10-15T06:20:30;38;36;
47810;PMS5003;33575;52.600;7.318;2022-10-15T06:23:00;34;32;
47810;PMS5003;33575;52.600;7.318;2022-10-15T06:25:32;36;33;
47810;PMS5003;33575;52.600;7.318;2022-10-15T06:28:01;42;36;
47810;PMS5003;33575;52.600;7.318;2022-10-15T06:30:31;38;36;
47810;PMS5003;33575;52.600;7.318;2022-10-15T06:33:02;30;29;
47810;PMS5003;33575;52.600;7.318;2022-10-15T06:35:33;37;35;
47810;PMS5003;33575;52.600;7.318;2022-10-15T06:38:04;36;33;
47810;PMS5003;33575;52.600;7.318;2022-10-15T06:40:33;34;32;
47810;PMS5003;33575;52.600;7.318;2022-10-15T06:43:04;39;37;
47810;PMS5003;33575;52.600;7.318;2022-10-15T06:45:35;35;30;
47810;PMS5003;33575;52.600;7.318;2022-10-15T06:48:05;39;36;
47810;PMS5003;33575;52.600;7.318;2022-10-15T06:50:36;43;41;
47810;PMS5003;33575;52.600;7.318;2022-10-15T06:53:06;32;31;
47810;PMS5003;33575;52.600;7.318;2022-10-15T06:55:36;38;36;
47810;PMS5003;33575;52.600;7.318;2022-10-15T06:58:07;49;42;
47810;PMS5003;33575;52.600;7.318;2022-10-15T07:00:38;41;39;
47810;PMS5003;33575;52.600;7.318;2022-10-15T07:03:08;51;46;
47810;PMS5003;33575;52.600;7.318;2022-10-15T07:05:39;40;36;
47810;PMS5003;33575;52.600;7.318;2022-10-15T07:08:10;48;45;
47810;PMS5003;33575;52.600;7.318;2022-10-15T07:10:40;44;39;
47810;PMS5003;33575;52.600;7.318;2022-10-15T07:13:11;42;40;
47810;PMS5003;33575;52.600;7.318;2022-10-15T07:15:42;41;36;
47810;PMS5003;33575;52.600;7.318;2022-10-15T07:18:13;39;36;
47810;PMS5003;33575;52.600;7.318;2022-10-15T07:20:43;44;43;
47810;PMS5003;33575;52.600;7.318;2022-10-15T07:23:13;42;41;
47810;PMS5003;33575;52.600;7.318;2022-10-15T07:25:44;39;37;
47810;PMS5003;33575;52.600;7.318;2022-10-15T07:28:14;39;35;
47810;PMS5003;33575;52.600;7.318;2022-10-15T07:30:45;36;35;
47810;PMS5003;33575;52.600;7.318;2022-10-15T07:33:16;40;38;
47810;PMS5003;33575;52.600;7.318;2022-10-15T07:35:47;41;36;
47810;PMS5003;33575;52.600;7.318;2022-10-15T07:38:17;51;46;
47810;PMS5003;33575;52.600;7.318;2022-10-15T07:40:48;46;41;
47810;PMS5003;33575;52.600;7.318;2022-10-15T07:43:18;38;36;
47810;PMS5003;33575;52.600;7.318;2022-10-15T07:45:49;45;43;
47810;PMS5003;33575;52.600;7.318;2022-10-15T07:48:19;47;39;
47810;PMS5003;33575;52.600;7.318;2022-10-15T07:50:52;39;36;
47810;PMS5003;33575;52.600;7.318;2022-10-15T07:53:23;46;43;
47810;PMS5003;33575;52.600;7.318;2022-10-15T07:55:51;44;38;
47810;PMS5003;33575;52.600;7.318;2022-10-15T07:58:21;44;42;
47810;PMS5003;33575;52.600;7.318;2022-10-15T08:00:52;45;42;
47810;PMS5003;33575;52.600;7.318;2022-10-15T08:03:22;39;38;
47810;PMS5003;33575;52.600;7.318;2022-10-15T08:05:53;45;41;
47810;PMS5003;33575;52.600;7.318;2022-10-15T08:08:23;46;40;
47810;PMS5003;33575;52.600;7.318;2022-10-15T08:10:54;47;44;
47810;PMS5003;33575;52.600;7.318;2022-10-15T08:13:25;46;41;
47810;PMS5003;33575;52.600;7.318;2022-10-15T08:16:00;43;40;
47810;PMS5003;33575;52.600;7.318;2022-10-15T08:18:25;41;37;
47810;PMS5003;33575;52.600;7.318;2022-10-15T08:20:57;46;42;
47810;PMS5003;33575;52.600;7.318;2022-10-15T08:23:26;47;43;
47810;PMS5003;33575;52.600;7.318;2022-10-15T08:25:57;43;39;
47810;PMS5003;33575;52.600;7.318;2022-10-15T08:28:28;43;41;
47810;PMS5003;33575;52.600;7.318;2022-10-15T08:31:04;47;42;
47810;PMS5003;33575;52.600;7.318;2022-10-15T08:33:29;45;43;
47810;PMS5003;33575;52.600;7.318;2022-10-15T08:35:59;46;44;
47810;PMS5003;33575;52.600;7.318;2022-10-15T08:38:30;48;45;
47810;PMS5003;33575;52.600;7.318;2022-10-15T08:41:00;46;42;
47810;PMS5003;33575;52.600;7.318;2022-10-15T08:43:32;50;44;
47810;PMS5003;33575;52.600;7.318;2022-10-15T08:46:02;42;41;
47810;PMS5003;33575;52.600;7.318;2022-10-15T08:48:32;47;44;
47810;PMS5003;33575;52.600;7.318;2022-10-15T08:51:02;49;45;
47810;PMS5003;33575;52.600;7.318;2022-10-15T08:53:32;45;41;
47810;PMS5003;33575;52.600;7.318;2022-10-15T08:56:03;47;41;
47810;PMS5003;33575;52.600;7.318;2022-10-15T08:58:40;46;43;
47810;PMS5003;33575;52.600;7.318;2022-10-15T09:01:03;55;44;
47810;PMS5003;33575;52.600;7.318;2022-10-15T09:03:35;55;49;
47810;PMS5003;33575;52.600;7.318;2022-10-15T09:06:06;50;47;
47810;PMS5003;33575;52.600;7.318;2022-10-15T09:08:36;54;50;
47810;PMS5003;33575;52.600;7.318;2022-10-15T09:11:06;57;52;
47810;PMS5003;33575;52.600;7.318;2022-10-15T09:13:37;59;53;
47810;PMS5003;33575;52.600;7.318;2022-10-15T09:16:09;44;43;
47810;PMS5003;33575;52.600;7.318;2022-10-15T09:18:36;49;41;
47810;PMS5003;33575;52.600;7.318;2022-10-15T09:21:07;47;42;
47810;PMS5003;33575;52.600;7.318;2022-10-15T09:23:37;52;46;
47810;PMS5003;33575;52.600;7.318;2022-10-15T09:26:12;41;38;
47810;PMS5003;33575;52.600;7.318;2022-10-15T09:28:40;50;41;
47810;PMS5003;33575;52.600;7.318;2022-10-15T09:31:09;40;39;
47810;PMS5003;33575;52.600;7.318;2022-10-15T09:33:40;44;39;
47810;PMS5003;33575;52.600;7.318;2022-10-15T09:36:15;37;36;
47810;PMS5003;33575;52.600;7.318;2022-10-15T09:38:41;41;38;
47810;PMS5003;33575;52.600;7.318;2022-10-15T09:41:12;37;37;
47810;PMS5003;33575;52.600;7.318;2022-10-15T09:43:42;48;43;
47810;PMS5003;33575;52.600;7.318;2022-10-15T09:46:11;50;46;
47810;PMS5003;33575;52.600;7.318;2022-10-15T09:48:42;43;41;
47810;PMS5003;33575;52.600;7.318;2022-10-15T09:51:15;46;45;
47810;PMS5003;33575;52.600;7.318;2022-10-15T09:53:43;46;39;
47810;PMS5003;33575;52.600;7.318;2022-10-15T09:56:12;45;43;
47810;PMS5003;33575;52.600;7.318;2022-10-15T09:58:46;40;38;
47810;PMS5003;33575;52.600;7.318;2022-10-15T10:01:16;35;34;
47810;PMS5003;33575;52.600;7.318;2022-10-15T10:03:44;40;37;
47810;PMS5003;33575;52.600;7.318;2022-10-15T10:06:14;37;33;
47810;PMS5003;33575;52.600;7.318;2022-10-15T10:08:48;36;34;
47810;PMS5003;33575;52.600;7.318;2022-10-15T10:11:15;42;39;
47810;PMS5003;33575;52.600;7.318;2022-10-15T10:13:49;41;38;
47810;PMS5003;33575;52.600;7.318;2022-10-15T10:16:17;36;33;
47810;PMS5003;33575;52.600;7.318;2022-10-15T10:21:21;34;32;
47810;PMS5003;33575;52.600;7.318;2022-10-15T10:23:48;38;37;
47810;PMS5003;33575;52.600;7.318;2022-10-15T10:26:18;40;38;
47810;PMS5003;33575;52.600;7.318;2022-10-15T10:28:49;34;34;
47810;PMS5003;33575;52.600;7.318;2022-10-15T10:33:49;32;29;
47810;PMS5003;33575;52.600;7.318;2022-10-15T10:36:20;35;31;
47810;PMS5003;33575;52.600;7.318;2022-10-15T10:38:54;33;29;
47810;PMS5003;33575;52.600;7.318;2022-10-15T10:41:21;36;34;
47810;PMS5003;33575;52.600;7.318;2022-10-15T10:43:52;33;31;
47810;PMS5003;33575;52.600;7.318;2022-10-15T10:46:22;28;26;
47810;PMS5003;33575;52.600;7.318;2022-10-15T10:48:52;35;33;
47810;PMS5003;33575;52.600;7.318;2022-10-15T10:51:23;31;29;
47810;PMS5003;33575;52.600;7.318;2022-10-15T10:53:53;27;26;
47810;PMS5003;33575;52.600;7.318;2022-10-15T10:56:24;31;29;
47810;PMS5003;33575;52.600;7.318;2022-10-15T10:58:56;26;23;
47810;PMS5003;33575;52.600;7.318;2022-10-15T11:01:24;23;22;
47810;PMS5003;33575;52.600;7.318;2022-10-15T11:03:54;23;22;
47810;PMS5003;33575;52.600;7.318;2022-10-15T11:06:29;30;29;
47810;PMS5003;33575;52.600;7.318;2022-10-15T11:08:58;23;23;
47810;PMS5003;33575;52.600;7.318;2022-10-15T11:11:26;21;20;
47810;PMS5003;33575;52.600;7.318;2022-10-15T11:13:58;23;22;
47810;PMS5003;33575;52.600;7.318;2022-10-15T11:16:28;26;24;
47810;PMS5003;33575;52.600;7.318;2022-10-15T11:19:00;26;25;
47810;PMS5003;33575;52.600;7.318;2022-10-15T11:21:30;23;22;
47810;PMS5003;33575;52.600;7.318;2022-10-15T11:24:00;22;21;
47810;PMS5003;33575;52.600;7.318;2022-10-15T11:26:30;25;23;
47810;PMS5003;33575;52.600;7.318;2022-10-15T11:29:01;20;20;
47810;PMS5003;33575;52.600;7.318;2022-10-15T11:31:31;25;24;
47810;PMS5003;33575;52.600;7.318;2022-10-15T11:34:02;23;22;
47810;PMS5003;33575;52.600;7.318;2022-10-15T11:36:33;27;27;
47810;PMS5003;33575;52.600;7.318;2022-10-15T11:39:05;25;23;
47810;PMS5003;33575;52.600;7.318;2022-10-15T11:41:33;22;22;
47810;PMS5003;33575;52.600;7.318;2022-10-15T11:44:03;22;21;
47810;PMS5003;33575;52.600;7.318;2022-10-15T11:46:32;24;24;
47810;PMS5003;33575;52.600;7.318;2022-10-15T11:49:04;26;25;
47810;PMS5003;33575;52.600;7.318;2022-10-15T11:51:33;29;28;
47810;PMS5003;33575;52.600;7.318;2022-10-15T11:54:11;31;30;
47810;PMS5003;33575;52.600;7.318;2022-10-15T11:56:38;34;32;
47810;PMS5003;33575;52.600;7.318;2022-10-15T11:59:03;28;27;
47810;PMS5003;33575;52.600;7.318;2022-10-15T12:01:34;33;32;
47810;PMS5003;33575;52.600;7.318;2022-10-15T12:04:04;32;30;
47810;PMS5003;33575;52.600;7.318;2022-10-15T12:06:34;33;29;
47810;PMS5003;33575;52.600;7.318;2022-10-15T12:09:03;32;31;
47810;PMS5003;33575;52.600;7.318;2022-10-15T12:11:38;31;30;
47810;PMS5003;33575;52.600;7.318;2022-10-15T12:14:06;29;28;
47810;PMS5003;33575;52.600;7.318;2022-10-15T12:16:35;37;36;
47810;PMS5003;33575;52.600;7.318;2022-10-15T12:19:09;33;33;
47810;PMS5003;33575;52.600;7.318;2022-10-15T12:21:37;38;37;
47810;PMS5003;33575;52.600;7.318;2022-10-15T12:26:36;36;35;
47810;PMS5003;33575;52.600;7.318;2022-10-15T12:29:17;34;32;
47810;PMS5003;33575;52.600;7.318;2022-10-15T12:31:42;32;30;
47810;PMS5003;33575;52.600;7.318;2022-10-15T12:34:12;35;35;
47810;PMS5003;33575;52.600;7.318;2022-10-15T12:36:38;33;31;
47810;PMS5003;33575;52.600;7.318;2022-10-15T12:41:39;35;33;
47810;PMS5003;33575;52.600;7.318;2022-10-15T12:44:13;36;29;
47810;PMS5003;33575;52.600;7.318;2022-10-15T12:46:39;38;36;
47810;PMS5003;33575;52.600;7.318;2022-10-15T12:51:40;33;31;
47810;PMS5003;33575;52.600;7.318;2022-10-15T12:56:41;32;31;
47810;PMS5003;33575;52.600;7.318;2022-10-15T13:04:13;31;29;
47810;PMS5003;33575;52.600;7.318;2022-10-15T13:06:43;28;26;
47810;PMS5003;33575;52.600;7.318;2022-10-15T13:09:19;36;36;
47810;PMS5003;33575;52.600;7.318;2022-10-15T13:11:45;25;24;
47810;PMS5003;33575;52.600;7.318;2022-10-15T13:14:16;28;27;
47810;PMS5003;33575;52.600;7.318;2022-10-15T13:16:45;24;23;
47810;PMS5003;33575;52.600;7.318;2022-10-15T13:19:16;25;24;
47810;PMS5003;33575;52.600;7.318;2022-10-15T13:21:46;27;27;
47810;PMS5003;33575;52.600;7.318;2022-10-15T13:24:17;20;20;
47810;PMS5003;33575;52.600;7.318;2022-10-15T13:26:46;19;18;
47810;PMS5003;33575;52.600;7.318;2022-10-15T13:29:17;25;23;
47810;PMS5003;33575;52.600;7.318;2022-10-15T13:31:47;23;21;
47810;PMS5003;33575;52.600;7.318;2022-10-15T13:34:23;24;23;
47810;PMS5003;33575;52.600;7.318;2022-10-15T13:36:48;17;16;
47810;PMS5003;33575;52.600;7.318;2022-10-15T13:39:21;17;16;
47810;PMS5003;33575;52.600;7.318;2022-10-15T13:41:48;15;14;
47810;PMS5003;33575;52.600;7.318;2022-10-15T13:44:20;16;16;
47810;PMS5003;33575;52.600;7.318;2022-10-15T13:46:49;12;12;
47810;PMS5003;33575;52.600;7.318;2022-10-15T13:49:20;15;15;
47810;PMS5003;33575;52.600;7.318;2022-10-15T13:51:51;13;13;
47810;PMS5003;33575;52.600;7.318;2022-10-15T13:54:21;12;12;
47810;PMS5003;33575;52.600;7.318;2022-10-15T13:56:52;11;11;
47810;PMS5003;33575;52.600;7.318;2022-10-15T13:59:21;15;14;
47810;PMS5003;33575;52.600;7.318;2022-10-15T14:01:52;13;13;
47810;PMS5003;33575;52.600;7.318;2022-10-15T14:04:22;16;15;
47810;PMS5003;33575;52.600;7.318;2022-10-15T14:06:58;14;14;
47810;PMS5003;33575;52.600;7.318;2022-10-15T14:09:24;14;14;
47810;PMS5003;33575;52.600;7.318;2022-10-15T14:11:53;12;11;
47810;PMS5003;33575;52.600;7.318;2022-10-15T14:14:28;18;17;
47810;PMS5003;33575;52.600;7.318;2022-10-15T14:16:54;15;15;
47810;PMS5003;33575;52.600;7.318;2022-10-15T14:19:24;15;13;
47810;PMS5003;33575;52.600;7.318;2022-10-15T14:21:54;15;14;
47810;PMS5003;33575;52.600;7.318;2022-10-15T14:24:27;13;13;
47810;PMS5003;33575;52.600;7.318;2022-10-15T14:26:59;14;14;
47810;PMS5003;33575;52.600;7.318;2022-10-15T14:29:27;18;17;
47810;PMS5003;33575;52.600;7.318;2022-10-15T14:31:56;13;13;
47810;PMS5003;33575;52.600;7.318;2022-10-15T14:34:28;14;14;
47810;PMS5003;33575;52.600;7.318;2022-10-15T14:36:56;18;18;
47810;PMS5003;33575;52.600;7.318;2022-10-15T14:39:28;16;16;
47810;PMS5003;33575;52.600;7.318;2022-10-15T14:41:58;14;13;
47810;PMS5003;33575;52.600;7.318;2022-10-15T14:46:58;14;14;
47810;PMS5003;33575;52.600;7.318;2022-10-15T14:49:29;15;13;
47810;PMS5003;33575;52.600;7.318;2022-10-15T14:51:59;15;14;
47810;PMS5003;33575;52.600;7.318;2022-10-15T14:54:32;13;13;
47810;PMS5003;33575;52.600;7.318;2022-10-15T14:56:59;15;14;
47810;PMS5003;33575;52.600;7.318;2022-10-15T14:59:31;16;14;
47810;PMS5003;33575;52.600;7.318;2022-10-15T15:02:04;12;12;
47810;PMS5003;33575;52.600;7.318;2022-10-15T15:04:33;11;11;
47810;PMS5003;33575;52.600;7.318;2022-10-15T15:07:01;18;17;
47810;PMS5003;33575;52.600;7.318;2022-10-15T15:09:31;15;14;
47810;PMS5003;33575;52.600;7.318;2022-10-15T15:12:02;14;14;
47810;PMS5003;33575;52.600;7.318;2022-10-15T15:14:32;13;13;
47810;PMS5003;33575;52.600;7.318;2022-10-15T15:17:02;13;13;
47810;PMS5003;33575;52.600;7.318;2022-10-15T15:19:33;13;13;
47810;PMS5003;33575;52.600;7.318;2022-10-15T15:22:03;18;17;
47810;PMS5003;33575;52.600;7.318;2022-10-15T15:24:33;14;13;
47810;PMS5003;33575;52.600;7.318;2022-10-15T15:27:03;14;13;
47810;PMS5003;33575;52.600;7.318;2022-10-15T15:29:34;11;11;
47810;PMS5003;33575;52.600;7.318;2022-10-15T15:32:04;15;12;
47810;PMS5003;33575;52.600;7.318;2022-10-15T15:34:34;16;14;
47810;PMS5003;33575;52.600;7.318;2022-10-15T15:37:06;14;12;
47810;PMS5003;33575;52.600;7.318;2022-10-15T15:39:35;11;10;
47810;PMS5003;33575;52.600;7.318;2022-10-15T15:42:05;11;11;
47810;PMS5003;33575;52.600;7.318;2022-10-15T15:44:36;12;12;
47810;PMS5003;33575;52.600;7.318;2022-10-15T15:47:06;10;10;
47810;PMS5003;33575;52.600;7.318;2022-10-15T15:49:36;11;10;
47810;PMS5003;33575;52.600;7.318;2022-10-15T15:52:07;8;8;
47810;PMS5003;33575;52.600;7.318;2022-10-15T15:54:37;8;8;
47810;PMS5003;33575;52.600;7.318;2022-10-15T15:57:07;10;9;
47810;PMS5003;33575;52.600;7.318;2022-10-15T15:59:38;7;7;
47810;PMS5003;33575;52.600;7.318;2022-10-15T16:02:08;7;7;
47810;PMS5003;33575;52.600;7.318;2022-10-15T16:04:38;7;7;
47810;PMS5003;33575;52.600;7.318;2022-10-15T16:07:13;7;7;
47810;PMS5003;33575;52.600;7.318;2022-10-15T16:09:39;7;7;
47810;PMS5003;33575;52.600;7.318;2022-10-15T16:12:09;8;8;
47810;PMS5003;33575;52.600;7.318;2022-10-15T16:14:40;7;6;
47810;PMS5003;33575;52.600;7.318;2022-10-15T16:17:10;6;6;
47810;PMS5003;33575;52.600;7.318;2022-10-15T16:19:40;7;7;
47810;PMS5003;33575;52.600;7.318;2022-10-15T16:22:11;7;7;
47810;PMS5003;33575;52.600;7.318;2022-10-15T16:24:41;6;6;
47810;PMS5003;33575;52.600;7.318;2022-10-15T16:27:11;6;5;
47810;PMS5003;33575;52.600;7.318;2022-10-15T16:29:42;7;7;
47810;PMS5003;33575;52.600;7.318;2022-10-15T16:32:12;5;4;
47810;PMS5003;33575;52.600;7.318;2022-10-15T16:34:43;6;6;
47810;PMS5003;33575;52.600;7.318;2022-10-15T16:37:13;7;7;
47810;PMS5003;33575;52.600;7.318;2022-10-15T16:39:43;5;4;
47810;PMS5003;33575;52.600;7.318;2022-10-15T16:42:14;6;6;
47810;PMS5003;33575;52.600;7.318;2022-10-15T16:44:44;5;5;
47810;PMS5003;33575;52.600;7.318;2022-10-15T16:47:14;6;5;
47810;PMS5003;33575;52.600;7.318;2022-10-15T16:49:45;6;5;
47810;PMS5003;33575;52.600;7.318;2022-10-15T16:52:15;7;7;
47810;PMS5003;33575;52.600;7.318;2022-10-15T16:54:45;8;7;
47810;PMS5003;33575;52.600;7.318;2022-10-15T16:57:16;7;6;
47810;PMS5003;33575;52.600;7.318;2022-10-15T16:59:46;7;6;
47810;PMS5003;33575;52.600;7.318;2022-10-15T17:02:16;8;7;
47810;PMS5003;33575;52.600;7.318;2022-10-15T17:04:47;7;7;
47810;PMS5003;33575;52.600;7.318;2022-10-15T17:07:17;8;7;
47810;PMS5003;33575;52.600;7.318;2022-10-15T17:09:48;7;7;